createdAt,value
2022-09-20T00:01:16.938Z,45.33
2022-09-20T00:03:43.442Z,45.25
2022-09-20T00:06:09.801Z,45.21
2022-09-20T00:08:36.149Z,45.45
2022-09-20T00:11:02.533Z,45.56
2022-09-20T00:13:28.906Z,45.39
2022-09-20T00:15:55.275Z,45.65
2022-09-20T00:18:21.664Z,46.20
2022-09-20T00:20:48.028Z,46.11
2022-09-20T00:23:14.402Z,46.82
2022-09-20T00:25:40.741Z,46.55
2022-09-20T00:28:07.104Z,47.14
2022-09-20T00:30:33.453Z,46.78
2022-09-20T00:32:59.813Z,46.77
2022-09-20T00:35:26.192Z,46.64
2022-09-20T00:37:52.536Z,46.95
2022-09-20T00:40:18.956Z,47.29
2022-09-20T00:42:45.330Z,47.04
2022-09-20T00:45:11.690Z,47.49
2022-09-20T00:47:38.063Z,47.49
2022-09-20T00:50:04.416Z,47.47
2022-09-20T00:52:30.794Z,47.68
2022-09-20T00:54:57.126Z,47.51
2022-09-20T00:57:23.477Z,47.73
2022-09-20T00:59:49.839Z,47.94
2022-09-20T01:02:16.220Z,47.82
2022-09-20T01:04:42.609Z,47.94
2022-09-20T01:07:08.974Z,47.86
2022-09-20T01:09:35.325Z,48.60
2022-09-20T01:12:01.697Z,48.46
2022-09-20T01:14:28.048Z,48.39
2022-09-20T01:16:54.506Z,48.75
2022-09-20T01:19:20.951Z,48.15
2022-09-20T01:21:47.313Z,48.38
2022-09-20T01:24:13.705Z,48.20
2022-09-20T01:26:40.074Z,48.36
2022-09-20T01:29:06.447Z,48.20
2022-09-20T01:31:32.829Z,49.17
2022-09-20T01:33:59.267Z,50.98
2022-09-20T01:36:25.614Z,51.09
2022-09-20T01:38:51.970Z,52.10
2022-09-20T01:41:18.365Z,51.90
2022-09-20T01:43:44.822Z,51.17
2022-09-20T01:46:11.229Z,51.30
2022-09-20T01:48:37.660Z,52.24
2022-09-20T01:51:04.044Z,52.63
2022-09-20T01:53:30.389Z,53.33
2022-09-20T01:55:56.752Z,53.67
2022-09-20T01:58:23.095Z,54.36
2022-09-20T02:00:49.494Z,54.60
2022-09-20T02:03:15.877Z,54.08
2022-09-20T02:05:42.247Z,54.94
2022-09-20T02:08:08.629Z,55.29
2022-09-20T02:10:34.984Z,54.73
2022-09-20T02:13:01.425Z,55.06
2022-09-20T02:15:27.759Z,54.75
2022-09-20T02:17:54.131Z,54.90
2022-09-20T02:20:20.478Z,54.34
2022-09-20T02:22:46.952Z,54.72
2022-09-20T02:25:13.358Z,55.05
2022-09-20T02:27:39.727Z,54.69
2022-09-20T02:30:06.079Z,54.58
2022-09-20T02:32:32.455Z,54.11
2022-09-20T02:34:58.837Z,54.02
2022-09-20T02:37:26.242Z,53.27
2022-09-20T02:39:52.590Z,53.17
2022-09-20T02:42:18.942Z,53.10
2022-09-20T02:44:45.331Z,52.76
2022-09-20T02:47:11.668Z,52.45
2022-09-20T02:49:38.031Z,51.75
2022-09-20T02:52:04.407Z,51.91
2022-09-20T02:54:30.769Z,50.98
2022-09-20T02:56:57.120Z,50.76
2022-09-20T02:59:23.463Z,50.65
2022-09-20T03:01:49.863Z,50.99
2022-09-20T03:04:16.307Z,51.32
2022-09-20T03:06:42.689Z,51.58
2022-09-20T03:09:09.022Z,51.88
2022-09-20T03:11:35.386Z,52.10
2022-09-20T03:14:01.742Z,52.38
2022-09-20T03:16:28.135Z,52.45
2022-09-20T03:18:54.524Z,52.16
2022-09-20T03:21:20.870Z,52.94
2022-09-20T03:23:47.228Z,52.42
2022-09-20T03:26:13.570Z,52.54
2022-09-20T03:28:39.942Z,52.58
2022-09-20T03:31:06.296Z,52.06
2022-09-20T03:33:32.656Z,52.14
2022-09-20T03:35:59.061Z,52.24
2022-09-20T03:38:25.448Z,52.33
2022-09-20T03:40:51.906Z,51.74
2022-09-20T03:43:18.310Z,51.67
2022-09-20T03:45:44.771Z,52.63
2022-09-20T03:48:11.156Z,51.85
2022-09-20T03:50:37.545Z,52.18
2022-09-20T03:53:03.882Z,52.25
2022-09-20T03:55:30.242Z,52.56
2022-09-20T03:57:56.604Z,52.78
2022-09-20T04:00:22.986Z,52.63
2022-09-20T04:02:49.332Z,52.97
2022-09-20T04:05:15.672Z,52.75
2022-09-20T04:07:42.021Z,53.02
2022-09-20T04:10:08.468Z,52.57
2022-09-20T04:12:34.820Z,52.86
2022-09-20T04:15:01.231Z,52.64
2022-09-20T04:17:27.576Z,52.38
2022-09-20T04:19:53.946Z,52.32
2022-09-20T04:22:20.292Z,52.33
2022-09-20T04:24:46.665Z,51.70
2022-09-20T04:27:13.058Z,51.96
2022-09-20T04:29:39.405Z,51.96
2022-09-20T04:32:05.840Z,51.82
2022-09-20T04:34:32.259Z,52.23
2022-09-20T04:36:58.645Z,51.83
2022-09-20T04:39:25.014Z,51.66
2022-09-20T04:41:51.373Z,51.36
2022-09-20T04:44:17.746Z,51.51
2022-09-20T04:46:44.099Z,51.37
2022-09-20T04:49:10.451Z,51.28
2022-09-20T04:51:36.837Z,51.36
2022-09-20T04:54:03.224Z,51.14
2022-09-20T04:56:29.598Z,51.29
2022-09-20T04:58:55.953Z,51.33
2022-09-20T05:01:24.342Z,51.63
2022-09-20T05:03:50.903Z,51.55
2022-09-20T05:06:17.274Z,51.34
2022-09-20T05:08:43.654Z,52.41
2022-09-20T05:11:10.103Z,52.53
2022-09-20T05:13:36.469Z,53.04
2022-09-20T05:16:02.831Z,52.99
2022-09-20T05:18:31.492Z,53.51
2022-09-20T05:20:57.869Z,54.00
2022-09-20T05:23:24.242Z,54.25
2022-09-20T05:25:50.608Z,54.52
2022-09-20T05:28:17.016Z,53.54
2022-09-20T05:30:43.377Z,53.15
2022-09-20T05:33:09.730Z,53.82
2022-09-20T05:35:36.094Z,52.45
2022-09-20T05:38:02.426Z,52.19
2022-09-20T05:40:28.829Z,50.09
2022-09-20T05:42:55.234Z,51.06
2022-09-20T05:45:21.663Z,49.28
2022-09-20T05:47:48.043Z,50.04
2022-09-20T05:50:14.503Z,50.38
2022-09-20T05:52:40.883Z,50.93
2022-09-20T05:55:07.210Z,50.80
2022-09-20T05:57:33.578Z,51.17
2022-09-20T05:59:59.926Z,51.55
2022-09-20T06:02:26.351Z,52.29
2022-09-20T06:04:52.772Z,52.66
2022-09-20T06:07:19.122Z,52.03
2022-09-20T06:09:45.473Z,51.71
2022-09-20T06:12:11.854Z,52.46
2022-09-20T06:14:38.224Z,53.52
2022-09-20T06:17:04.567Z,53.31
2022-09-20T06:19:30.926Z,53.70
2022-09-20T06:22:03.048Z,53.16
2022-09-20T06:24:30.049Z,53.08
2022-09-20T06:26:56.435Z,53.90
2022-09-20T06:29:23.801Z,52.86
2022-09-20T06:31:50.140Z,52.54
2022-09-20T06:34:16.501Z,52.85
2022-09-20T06:36:42.864Z,53.94
2022-09-20T06:39:09.246Z,54.46
2022-09-20T06:41:35.625Z,54.79
2022-09-20T06:44:02.990Z,54.82
2022-09-20T06:46:29.347Z,54.89
2022-09-20T06:48:55.701Z,55.91
2022-09-20T06:51:22.060Z,55.07
2022-09-20T06:53:48.424Z,55.45
2022-09-20T06:56:14.779Z,55.40
2022-09-20T06:58:41.154Z,54.30
2022-09-20T07:01:07.589Z,54.90
2022-09-20T07:03:33.953Z,54.98
2022-09-20T07:06:00.466Z,53.46
2022-09-20T07:08:26.873Z,52.20
2022-09-20T07:10:53.226Z,50.79
2022-09-20T07:13:19.599Z,51.12
2022-09-20T07:15:46.016Z,49.61
2022-09-20T07:18:12.402Z,50.39
2022-09-20T07:20:38.777Z,49.47
2022-09-20T07:23:05.148Z,49.21
2022-09-20T07:25:31.576Z,50.08
2022-09-20T07:27:57.932Z,49.62
2022-09-20T07:30:24.335Z,50.20
2022-09-20T07:32:50.696Z,50.03
2022-09-20T07:35:17.065Z,50.26
2022-09-20T07:37:43.752Z,48.94
2022-09-20T07:40:10.195Z,48.98
2022-09-20T07:42:36.679Z,48.72
2022-09-20T07:45:03.179Z,48.10
2022-09-20T07:47:29.657Z,48.64
2022-09-20T07:49:56.034Z,48.40
2022-09-20T07:52:22.396Z,47.38
2022-09-20T07:54:48.786Z,47.47
2022-09-20T07:57:15.187Z,47.51
2022-09-20T07:59:41.623Z,47.37
2022-09-20T08:02:08.074Z,47.26
2022-09-20T08:04:34.574Z,46.29
2022-09-20T08:07:00.958Z,46.04
2022-09-20T08:09:27.328Z,46.46
2022-09-20T08:11:53.757Z,46.54
2022-09-20T08:14:20.353Z,47.51
2022-09-20T08:16:46.950Z,47.05
2022-09-20T08:19:13.401Z,47.35
2022-09-20T08:21:39.907Z,45.80
2022-09-20T08:24:06.307Z,46.99
2022-09-20T08:26:32.706Z,46.25
2022-09-20T08:28:59.077Z,47.28
2022-09-20T08:31:26.473Z,46.75
2022-09-20T08:33:52.860Z,46.42
2022-09-20T08:36:19.238Z,45.51
2022-09-20T08:41:31.934Z,45.94
2022-09-20T08:43:58.356Z,46.04
2022-09-20T08:46:24.800Z,46.07
2022-09-20T08:48:51.206Z,45.57
2022-09-20T08:51:22.613Z,45.55
2022-09-20T08:53:49.549Z,45.07
2022-09-20T08:56:15.939Z,45.06
2022-09-20T08:58:42.371Z,45.08
2022-09-20T09:01:08.788Z,43.16
2022-09-20T09:03:35.178Z,43.62
2022-09-20T09:06:01.549Z,43.22
2022-09-20T09:08:27.910Z,43.44
2022-09-20T09:10:54.348Z,42.87
2022-09-20T09:13:20.748Z,42.95
2022-09-20T09:15:47.159Z,43.55
2022-09-20T09:18:13.524Z,43.70
2022-09-20T09:20:39.874Z,43.04
2022-09-20T09:23:06.282Z,43.85
2022-09-20T09:25:32.637Z,41.36
2022-09-20T09:27:58.996Z,41.45
2022-09-20T09:30:25.369Z,42.26
2022-09-20T09:32:51.758Z,42.27
2022-09-20T09:35:18.095Z,41.93
2022-09-20T09:37:44.456Z,41.38
2022-09-20T09:40:11.023Z,42.96
2022-09-20T09:42:37.400Z,43.00
2022-09-20T09:45:06.153Z,42.13
2022-09-20T09:47:32.504Z,41.43
2022-09-20T09:50:01.021Z,41.10
2022-09-20T09:52:29.253Z,40.77
2022-09-20T09:54:55.979Z,41.26
2022-09-20T09:57:22.323Z,40.20
2022-09-20T09:59:48.739Z,39.16
2022-09-20T10:02:15.176Z,39.60
2022-09-20T10:04:41.590Z,39.76
2022-09-20T10:07:08.016Z,39.22
2022-09-20T10:09:34.387Z,37.77
2022-09-20T10:12:00.744Z,38.54
2022-09-20T10:14:27.120Z,38.16
2022-09-20T10:16:53.549Z,38.33
2022-09-20T10:19:22.722Z,38.49
2022-09-20T10:21:49.326Z,38.20
2022-09-20T10:24:15.696Z,38.16
2022-09-20T10:26:42.172Z,37.97
2022-09-20T10:29:08.538Z,36.91
2022-09-20T10:31:34.978Z,37.75
2022-09-20T10:34:01.456Z,36.40
2022-09-20T10:36:27.808Z,35.72
2022-09-20T10:38:54.204Z,35.45
2022-09-20T10:41:20.574Z,35.93
2022-09-20T10:43:46.953Z,35.84
2022-09-20T10:46:32.349Z,35.82
2022-09-20T10:48:59.527Z,35.31
2022-09-20T10:51:25.889Z,35.27
2022-09-20T10:53:52.262Z,34.80
2022-09-20T10:56:18.619Z,34.05
2022-09-20T10:58:45.029Z,33.96
2022-09-20T11:01:11.523Z,33.30
2022-09-20T11:03:37.909Z,33.67
2022-09-20T11:06:04.284Z,34.27
2022-09-20T11:08:30.659Z,34.10
2022-09-20T11:10:57.042Z,34.42
2022-09-20T11:13:23.406Z,34.05
2022-09-20T11:15:49.763Z,33.82
2022-09-20T11:18:16.107Z,34.17
2022-09-20T11:20:42.787Z,34.21
2022-09-20T11:23:09.201Z,35.14
2022-09-20T11:25:35.569Z,34.02
2022-09-20T11:28:01.920Z,34.51
2022-09-20T11:30:28.286Z,33.96
2022-09-20T11:32:54.658Z,33.52
2022-09-20T11:35:21.014Z,32.18
2022-09-20T11:37:47.410Z,32.13
2022-09-20T11:40:13.784Z,32.19
2022-09-20T11:42:40.239Z,33.36
2022-09-20T11:45:06.596Z,34.51
2022-09-20T11:47:53.460Z,33.50
2022-09-20T11:50:19.395Z,32.25
2022-09-20T11:52:45.768Z,33.53
2022-09-20T11:55:12.103Z,32.93
2022-09-20T11:57:38.459Z,32.31
2022-09-20T12:00:04.847Z,32.03
2022-09-20T12:02:31.430Z,32.29
2022-09-20T12:04:57.860Z,32.58
2022-09-20T12:07:24.237Z,31.66
2022-09-20T12:09:50.613Z,32.23
2022-09-20T12:12:17.024Z,32.19
2022-09-20T12:14:43.407Z,31.58
2022-09-20T12:17:09.762Z,31.61
2022-09-20T12:19:36.129Z,30.59
2022-09-20T12:22:02.502Z,30.92
2022-09-20T12:24:28.851Z,30.95
2022-09-20T12:26:55.203Z,31.03
2022-09-20T12:29:21.563Z,29.20
2022-09-20T12:31:47.949Z,28.40
2022-09-20T12:34:14.334Z,27.73
2022-09-20T12:36:40.689Z,29.13
2022-09-20T12:39:07.042Z,29.39
2022-09-20T12:41:33.401Z,29.07
2022-09-20T12:43:59.750Z,26.97
2022-09-20T12:46:26.169Z,26.72
2022-09-20T12:48:52.578Z,26.56
2022-09-20T12:51:18.952Z,26.23
2022-09-20T12:53:45.294Z,27.69
2022-09-20T12:56:11.647Z,27.76
2022-09-20T12:58:38.002Z,27.11
2022-09-20T13:01:04.415Z,25.91
2022-09-20T13:03:30.788Z,26.00
2022-09-20T13:05:57.142Z,25.49
2022-09-20T13:08:23.501Z,25.12
2022-09-20T13:10:49.854Z,25.12
2022-09-20T13:13:16.227Z,26.36
2022-09-20T13:15:42.600Z,24.72
2022-09-20T13:18:09.031Z,26.90
2022-09-20T13:20:35.440Z,25.26
2022-09-20T13:23:01.857Z,26.32
2022-09-20T13:25:28.202Z,25.84
2022-09-20T13:27:54.542Z,26.08
2022-09-20T13:30:20.910Z,26.09
2022-09-20T13:32:47.276Z,25.62
2022-09-20T13:35:13.648Z,24.40
2022-09-20T13:37:40.024Z,26.44
2022-09-20T13:40:06.451Z,25.79
2022-09-20T13:42:33.622Z,25.06
2022-09-20T13:45:00.046Z,25.66
2022-09-20T13:47:26.421Z,24.57
2022-09-20T13:49:52.760Z,24.43
2022-09-20T13:52:19.132Z,24.11
2022-09-20T13:54:45.506Z,24.15
2022-09-20T13:57:11.875Z,24.65
2022-09-20T13:59:38.244Z,24.83
2022-09-20T14:02:04.690Z,23.91
2022-09-20T14:04:31.070Z,24.53
2022-09-20T14:06:57.439Z,24.69
2022-09-20T14:09:23.801Z,24.41
2022-09-20T14:11:50.156Z,24.60
2022-09-20T14:14:21.287Z,24.40
2022-09-20T14:16:48.501Z,24.91
2022-09-20T14:19:14.844Z,25.69
2022-09-20T14:21:41.191Z,24.46
2022-09-20T14:24:07.538Z,25.69
2022-09-20T14:26:33.895Z,24.42
2022-09-20T14:29:00.317Z,23.47
2022-09-20T14:31:26.730Z,23.68
2022-09-20T14:33:55.239Z,25.15
2022-09-20T14:36:21.831Z,24.94
2022-09-20T14:38:48.214Z,25.24
2022-09-20T14:41:14.576Z,25.67
2022-09-20T14:43:40.954Z,25.68
2022-09-20T14:46:07.343Z,24.63
2022-09-20T14:48:35.112Z,24.38
2022-09-20T14:51:01.472Z,24.43
2022-09-20T14:53:27.836Z,24.99
2022-09-20T14:55:54.273Z,24.82
2022-09-20T14:58:20.626Z,23.61
2022-09-20T15:00:47.064Z,24.42
2022-09-20T15:03:13.440Z,24.09
2022-09-20T15:05:39.812Z,24.84
2022-09-20T15:08:06.167Z,24.25
2022-09-20T15:10:32.510Z,24.03
2022-09-20T15:12:58.874Z,23.94
2022-09-20T15:15:25.246Z,25.42
2022-09-20T15:17:51.661Z,24.41
2022-09-20T15:20:23.220Z,23.60
2022-09-20T15:22:50.509Z,23.11
2022-09-20T15:25:16.880Z,23.42
2022-09-20T15:27:43.605Z,23.08
2022-09-20T15:30:09.960Z,23.07
2022-09-20T15:32:36.326Z,22.88
2022-09-20T15:35:02.732Z,23.24
2022-09-20T15:37:29.085Z,21.47
2022-09-20T15:39:55.439Z,21.83
2022-09-20T15:42:21.829Z,20.81
2022-09-20T15:44:48.178Z,20.50
2022-09-20T15:47:16.139Z,20.25
2022-09-20T15:49:42.567Z,20.13
2022-09-20T15:52:08.937Z,19.41
2022-09-20T15:54:35.279Z,19.19
2022-09-20T15:57:01.644Z,19.56
2022-09-20T15:59:27.971Z,18.75
2022-09-20T16:01:54.386Z,19.03
2022-09-20T16:04:20.787Z,18.53
2022-09-20T16:06:47.139Z,18.56
2022-09-20T16:09:13.488Z,19.00
2022-09-20T16:11:39.834Z,18.68
2022-09-20T16:14:08.262Z,18.55
2022-09-20T16:16:39.662Z,18.63
2022-09-20T16:19:06.747Z,19.09
2022-09-20T16:21:33.245Z,18.87
2022-09-20T16:23:59.756Z,18.77
2022-09-20T16:26:26.161Z,18.85
2022-09-20T16:28:52.584Z,18.86
2022-09-20T16:31:19.021Z,18.87
2022-09-20T16:33:45.399Z,19.61
2022-09-20T16:36:11.745Z,19.87
2022-09-20T16:38:38.243Z,19.91
2022-09-20T16:41:04.605Z,20.35
2022-09-20T16:43:30.987Z,20.41
2022-09-20T16:45:57.403Z,20.85
2022-09-20T16:48:23.793Z,21.56
2022-09-20T16:50:50.188Z,22.23
2022-09-20T16:53:16.533Z,22.78
2022-09-20T16:55:42.898Z,23.11
2022-09-20T16:58:09.251Z,23.94
2022-09-20T17:00:35.662Z,24.35
2022-09-20T17:03:02.048Z,25.09
2022-09-20T17:05:28.418Z,25.98
2022-09-20T17:07:54.785Z,26.25
2022-09-20T17:10:21.146Z,26.79
2022-09-20T17:12:47.497Z,27.95
2022-09-20T17:15:13.871Z,29.34
2022-09-20T17:17:40.281Z,30.23
2022-09-20T17:20:06.637Z,30.63
2022-09-20T17:22:33.065Z,31.66
2022-09-20T17:24:59.463Z,32.61
2022-09-20T17:27:25.883Z,33.43
2022-09-20T17:29:52.355Z,33.75
2022-09-20T17:32:18.752Z,34.28
2022-09-20T17:34:45.256Z,34.87
2022-09-20T17:37:11.671Z,35.13
2022-09-20T17:39:38.353Z,35.83
2022-09-20T17:42:04.701Z,36.09
2022-09-20T17:44:31.176Z,36.53
2022-09-20T17:46:58.591Z,36.81
2022-09-20T17:49:24.981Z,36.80
2022-09-20T17:51:51.349Z,36.31
2022-09-20T17:54:17.700Z,37.04
2022-09-20T17:56:44.076Z,36.98
2022-09-20T17:59:10.513Z,37.20
2022-09-20T18:01:36.878Z,37.72
2022-09-20T18:04:03.226Z,37.64
2022-09-20T18:06:29.591Z,37.42
2022-09-20T18:08:55.946Z,37.58
2022-09-20T18:11:22.292Z,37.76
2022-09-20T18:13:50.705Z,38.01
2022-09-20T18:16:17.166Z,38.15
2022-09-20T18:18:43.645Z,38.45
2022-09-20T18:21:10.001Z,38.17
2022-09-20T18:23:36.624Z,38.00
2022-09-20T18:26:03.022Z,38.17
2022-09-20T18:28:29.415Z,38.14
2022-09-20T18:30:55.833Z,38.70
2022-09-20T18:33:22.181Z,38.83
2022-09-20T18:35:48.600Z,39.12
2022-09-20T18:38:14.956Z,38.54
2022-09-20T18:40:41.387Z,38.92
2022-09-20T18:43:07.761Z,38.31
2022-09-20T18:45:34.129Z,38.64
2022-09-20T18:48:00.486Z,38.30
2022-09-20T18:50:26.872Z,38.43
2022-09-20T18:52:53.324Z,38.25
2022-09-20T18:55:19.738Z,39.19
2022-09-20T18:57:46.142Z,38.68
2022-09-20T19:00:12.520Z,38.73
2022-09-20T19:02:38.932Z,39.42
2022-09-20T19:05:05.596Z,39.16
2022-09-20T19:07:31.963Z,39.07
2022-09-20T19:09:59.365Z,39.24
2022-09-20T19:12:25.746Z,39.06
2022-09-20T19:14:52.118Z,39.02
2022-09-20T19:17:18.477Z,39.03
2022-09-20T19:19:44.859Z,38.89
2022-09-20T19:22:11.203Z,39.06
2022-09-20T19:24:37.601Z,39.14
2022-09-20T19:27:05.021Z,39.01
2022-09-20T19:29:31.538Z,39.61
2022-09-20T19:31:57.883Z,39.50
2022-09-20T19:34:24.465Z,39.88
2022-09-20T19:36:50.827Z,39.54
2022-09-20T19:39:17.510Z,40.03
2022-09-20T19:41:43.860Z,39.78
2022-09-20T19:44:10.209Z,39.88
2022-09-20T19:46:36.689Z,39.64
2022-09-20T19:49:03.143Z,40.02
2022-09-20T19:51:29.567Z,40.19
2022-09-20T19:53:56.077Z,40.42
2022-09-20T19:56:22.445Z,40.23
2022-09-20T19:58:49.806Z,40.32
2022-09-20T20:01:16.221Z,40.19
2022-09-20T20:03:44.879Z,39.73
2022-09-20T20:06:13.013Z,39.52
2022-09-20T20:08:39.630Z,39.28
2022-09-20T20:11:05.983Z,39.61
2022-09-20T20:13:32.351Z,39.32
2022-09-20T20:16:01.199Z,39.58
2022-09-20T20:18:27.639Z,39.60
2022-09-20T20:20:54.033Z,39.79
2022-09-20T20:23:20.402Z,40.07
2022-09-20T20:25:46.798Z,40.13
2022-09-20T20:28:13.148Z,39.97
2022-09-20T20:30:39.544Z,40.06
2022-09-20T20:33:05.891Z,40.17
2022-09-20T20:35:32.239Z,40.00
2022-09-20T20:37:58.594Z,40.12
2022-09-20T20:40:25.117Z,39.81
2022-09-20T20:42:51.583Z,39.67
2022-09-20T20:45:17.968Z,39.87
2022-09-20T20:47:44.345Z,39.73
2022-09-20T20:50:10.694Z,40.09
2022-09-20T20:52:37.082Z,39.90
2022-09-20T20:55:03.453Z,39.62
2022-09-20T20:57:29.827Z,39.48
2022-09-20T20:59:56.179Z,39.75
2022-09-20T21:02:22.566Z,39.52
2022-09-20T21:04:48.929Z,40.08
2022-09-20T21:07:15.318Z,39.93
2022-09-20T21:09:41.680Z,39.95
2022-09-20T21:12:08.313Z,40.25
2022-09-20T21:14:34.673Z,40.46
2022-09-20T21:17:01.053Z,40.35
2022-09-20T21:19:27.486Z,40.17
2022-09-20T21:21:54.938Z,40.28
2022-09-20T21:24:21.274Z,40.25
2022-09-20T21:26:47.656Z,40.44
2022-09-20T21:29:14.004Z,40.40
2022-09-20T21:31:40.442Z,40.16
2022-09-20T21:34:06.883Z,40.16
2022-09-20T21:36:33.519Z,40.41
2022-09-20T21:38:59.937Z,40.51
2022-09-20T21:41:26.285Z,41.06
2022-09-20T21:43:52.651Z,40.98
2022-09-20T21:46:19.129Z,41.10
2022-09-20T21:48:45.578Z,41.33
2022-09-20T21:51:11.925Z,41.77
2022-09-20T21:53:38.283Z,41.86
2022-09-20T21:56:04.659Z,42.24
2022-09-20T21:58:31.006Z,42.23
2022-09-20T22:00:57.374Z,42.80
2022-09-20T22:03:23.761Z,43.31
2022-09-20T22:05:50.121Z,43.95
2022-09-20T22:08:16.504Z,43.39
2022-09-20T22:10:42.884Z,43.65
2022-09-20T22:13:09.234Z,44.18
2022-09-20T22:15:35.634Z,43.88
2022-09-20T22:18:02.011Z,43.59
2022-09-20T22:20:28.392Z,43.98
2022-09-20T22:22:54.777Z,44.38
2022-09-20T22:25:21.154Z,44.26
2022-09-20T22:27:47.600Z,44.73
2022-09-20T22:30:14.004Z,44.58
2022-09-20T22:32:40.390Z,44.54
2022-09-20T22:35:06.761Z,44.55
2022-09-20T22:37:33.169Z,44.96
2022-09-20T22:39:59.563Z,44.75
2022-09-20T22:42:25.992Z,44.94
2022-09-20T22:44:52.329Z,45.08
2022-09-20T22:47:18.711Z,44.91
2022-09-20T22:49:45.109Z,45.17
2022-09-20T22:52:11.552Z,45.26
2022-09-20T22:54:37.906Z,45.58
2022-09-20T22:57:04.274Z,46.23
2022-09-20T22:59:30.641Z,45.99
2022-09-20T23:01:57.012Z,46.34
2022-09-20T23:04:23.398Z,46.52
2022-09-20T23:06:49.754Z,46.17
2022-09-20T23:09:16.145Z,46.34
2022-09-20T23:11:42.505Z,46.38
2022-09-20T23:14:08.884Z,46.60
2022-09-20T23:16:35.290Z,47.01
2022-09-20T23:19:01.688Z,47.08
2022-09-20T23:21:28.083Z,46.85
2022-09-20T23:23:54.456Z,47.10
2022-09-20T23:26:20.861Z,47.29
2022-09-20T23:28:47.307Z,46.95
2022-09-20T23:31:13.736Z,46.97
2022-09-20T23:33:43.599Z,47.24
2022-09-20T23:36:12.902Z,48.10
2022-09-20T23:38:39.280Z,47.76
2022-09-20T23:41:05.622Z,48.02
2022-09-20T23:43:32.013Z,47.59
2022-09-20T23:45:58.376Z,47.89
2022-09-20T23:48:24.766Z,48.21
2022-09-20T23:50:51.126Z,47.78
2022-09-20T23:53:17.503Z,48.16
2022-09-20T23:55:43.851Z,47.99
2022-09-20T23:58:10.231Z,48.14
